Time;durP1;ratioP1;P1;durP2;ratioP2;P2;SDS_P1;SDS_P2;PMS_P1;PMS_P2;Temp;Humidity;BMP_temperature;BMP_pressure;BME280_temperature;BME280_humidity;BME280_pressure;Samples;Min_cycle;Max_cycle;Signal;HPM_P1;HPM_P2
2022/04/29 00:00:22;;;;;;;17.90;6.35;;;6.50;99.90;;;;;;4980265;28;20068;-72
2022/04/29 00:02:48;;;;;;;14.20;5.75;;;6.40;99.90;;;;;;4994637;28;20699;-71
2022/04/29 00:05:15;;;;;;;13.90;5.85;;;6.30;99.90;;;;;;4997056;28;20060;-72
2022/04/29 00:07:41;;;;;;;10.68;5.68;;;6.30;99.90;;;;;;4978425;28;20049;-72
2022/04/29 00:10:12;;;;;;;12.48;6.10;;;6.30;99.90;;;;;;5000061;28;20045;-72
2022/04/29 00:12:41;;;;;;;14.15;6.00;;;6.30;99.90;;;;;;4978509;28;20053;-72
2022/04/29 00:15:14;;;;;;;17.00;5.85;;;6.20;99.90;;;;;;4964811;28;20058;-72
2022/04/29 00:17:40;;;;;;;12.90;5.45;;;6.10;99.90;;;;;;4971633;28;20044;-72
2022/04/29 00:20:07;;;;;;;15.20;5.55;;;6.10;99.90;;;;;;4983194;28;20556;-72
2022/04/29 00:22:34;;;;;;;13.32;5.47;;;6.10;99.90;;;;;;4972137;28;20473;-72
2022/04/29 00:25:00;;;;;;;16.45;6.30;;;6.10;99.90;;;;;;4982646;28;20053;-72
2022/04/29 00:27:26;;;;;;;19.77;6.65;;;6.10;99.90;;;;;;4967243;28;20049;-72
2022/04/29 00:29:52;;;;;;;16.92;6.00;;;6.10;99.90;;;;;;4986917;28;20049;-71
2022/04/29 00:32:18;;;;;;;17.33;5.85;;;6.10;99.90;;;;;;4985247;28;20049;-72
2022/04/29 00:34:44;;;;;;;23.25;6.97;;;6.10;99.90;;;;;;4982717;28;20053;-72
2022/04/29 00:37:13;;;;;;;26.60;6.45;;;6.20;99.90;;;;;;4986381;28;20062;-72
2022/04/29 00:39:39;;;;;;;17.30;6.93;;;6.30;99.90;;;;;;4988180;28;20063;-71
2022/04/29 00:42:13;;;;;;;14.05;5.95;;;6.20;99.90;;;;;;4972156;28;20446;-72
2022/04/29 00:44:40;;;;;;;13.23;6.40;;;6.20;99.90;;;;;;4985559;28;20057;-72
2022/04/29 00:47:08;;;;;;;21.17;6.82;;;6.00;99.90;;;;;;4979735;28;20048;-71
2022/04/29 00:49:34;;;;;;;46.50;7.70;;;6.00;99.90;;;;;;5004321;28;20045;-72
2022/04/29 00:52:00;;;;;;;16.95;6.68;;;6.00;99.90;;;;;;4984724;28;20058;-72
2022/04/29 00:54:30;;;;;;;17.88;6.88;;;6.00;99.90;;;;;;4995609;28;20220;-72
2022/04/29 00:56:58;;;;;;;16.85;6.10;;;6.00;99.90;;;;;;5001097;28;20073;-72
2022/04/29 00:59:59;;;;;;;15.35;6.07;;;6.00;99.90;;;;;;4996963;28;20743;-72
2022/04/29 01:02:25;;;;;;;12.70;5.93;;;5.90;99.90;;;;;;4991886;28;20053;-72
2022/04/29 01:05:11;;;;;;;25.95;7.35;;;5.70;99.90;;;;;;4980676;28;20076;-71
2022/04/29 01:07:39;;;;;;;20.38;6.40;;;5.70;99.90;;;;;;4983858;28;20053;-72
2022/04/29 01:10:06;;;;;;;12.02;5.60;;;5.70;99.90;;;;;;4983337;28;20052;-72
2022/04/29 01:12:35;;;;;;;15.00;6.28;;;5.80;99.90;;;;;;4970067;28;20048;-71
2022/04/29 01:15:08;;;;;;;21.52;6.60;;;5.70;99.90;;;;;;4998803;28;20061;-72
2022/04/29 01:17:36;;;;;;;14.52;6.15;;;5.70;99.90;;;;;;5003638;28;20053;-72
2022/04/29 01:20:10;;;;;;;16.48;6.43;;;5.70;99.90;;;;;;5007006;28;20053;-72
2022/04/29 01:22:36;;;;;;;17.08;6.93;;;5.70;99.90;;;;;;4983918;28;20057;-71
2022/04/29 01:25:03;;;;;;;28.42;7.13;;;5.70;99.90;;;;;;4986244;28;20061;-71
2022/04/29 01:27:29;;;;;;;15.32;6.45;;;5.60;99.90;;;;;;4985243;28;20068;-71
2022/04/29 01:30:08;;;;;;;13.95;7.35;;;5.50;99.90;;;;;;4988205;28;20046;-71
2022/04/29 01:32:35;;;;;;;18.17;6.65;;;5.40;99.90;;;;;;4998785;28;20041;-71
2022/04/29 01:35:02;;;;;;;15.32;6.53;;;5.40;99.90;;;;;;4986754;28;20454;-71
2022/04/29 01:37:28;;;;;;;15.48;7.15;;;5.40;99.90;;;;;;4984597;28;20137;-72
2022/04/29 01:39:54;;;;;;;14.02;6.78;;;5.30;99.90;;;;;;5003969;28;20041;-72
2022/04/29 01:42:21;;;;;;;18.55;7.43;;;5.40;99.90;;;;;;5002388;28;20072;-71
2022/04/29 01:44:47;;;;;;;15.18;6.57;;;5.30;99.90;;;;;;5000414;28;20049;-72
2022/04/29 01:47:13;;;;;;;16.65;6.43;;;5.40;99.90;;;;;;5000130;28;20052;-71
2022/04/29 01:49:39;;;;;;;17.30;6.45;;;5.40;99.90;;;;;;5006445;28;20053;-71
2022/04/29 01:52:05;;;;;;;12.63;6.47;;;5.40;99.90;;;;;;5001103;28;20056;-72
2022/04/29 01:54:30;;;;;;;16.50;6.97;;;5.30;99.90;;;;;;5002127;28;20077;-71
2022/04/29 01:56:56;;;;;;;13.18;6.78;;;5.30;99.90;;;;;;5001379;28;20128;-71
2022/04/29 01:59:22;;;;;;;15.15;7.15;;;5.20;99.90;;;;;;4999896;28;20513;-71
2022/04/29 02:01:48;;;;;;;19.75;6.72;;;5.30;99.90;;;;;;5002384;28;20382;-71
2022/04/29 02:04:15;;;;;;;16.23;7.20;;;5.30;99.90;;;;;;4951516;28;20052;-71
2022/04/29 02:06:41;;;;;;;21.90;7.03;;;5.30;99.90;;;;;;4984520;28;20046;-71
2022/04/29 02:09:08;;;;;;;13.82;6.38;;;5.30;99.90;;;;;;4967533;28;20037;-71
2022/04/29 02:11:37;;;;;;;18.17;6.75;;;5.20;99.90;;;;;;4981888;28;20523;-71
2022/04/29 02:14:03;;;;;;;12.82;6.60;;;5.30;99.90;;;;;;4966051;28;20143;-71
2022/04/29 02:16:29;;;;;;;19.60;7.18;;;5.30;99.90;;;;;;4970721;28;20554;-72
2022/04/29 02:18:55;;;;;;;13.65;6.95;;;5.20;99.90;;;;;;4971312;28;20519;-72
2022/04/29 02:21:21;;;;;;;15.65;6.90;;;5.20;99.90;;;;;;4986565;28;20084;-72
2022/04/29 02:23:47;;;;;;;15.90;6.60;;;5.30;99.90;;;;;;4982956;28;20511;-72
2022/04/29 02:26:13;;;;;;;18.20;7.78;;;5.30;99.90;;;;;;4984061;28;20057;-72
2022/04/29 02:28:39;;;;;;;15.70;7.10;;;5.30;99.90;;;;;;4986014;28;20057;-72
2022/04/29 02:31:04;;;;;;;14.00;5.93;;;5.30;99.90;;;;;;4970375;28;20057;-72
2022/04/29 02:33:30;;;;;;;16.20;7.05;;;5.20;99.90;;;;;;4984439;28;20048;-72
2022/04/29 02:35:56;;;;;;;15.20;6.90;;;5.10;99.90;;;;;;4984503;28;20049;-72
2022/04/29 02:38:22;;;;;;;15.82;6.00;;;5.00;99.90;;;;;;4985605;28;20900;-71
2022/04/29 02:40:50;;;;;;;13.30;6.30;;;5.10;99.90;;;;;;4983955;28;20041;-71
2022/04/29 02:43:17;;;;;;;14.63;6.22;;;5.10;99.90;;;;;;4972143;28;20057;-71
2022/04/29 02:45:44;;;;;;;13.32;6.35;;;5.10;99.90;;;;;;4973492;28;20055;-71
2022/04/29 02:48:10;;;;;;;17.52;6.72;;;5.10;99.90;;;;;;4983672;28;20759;-71
2022/04/29 02:50:36;;;;;;;16.85;7.43;;;5.00;99.90;;;;;;4986279;28;20111;-72
2022/04/29 02:53:02;;;;;;;15.40;6.53;;;4.80;99.90;;;;;;4988611;28;20152;-72
2022/04/29 02:55:28;;;;;;;17.35;7.07;;;4.80;99.90;;;;;;4970161;28;20776;-71
2022/04/29 02:57:54;;;;;;;11.70;6.00;;;4.80;99.90;;;;;;4971294;28;20047;-72
2022/04/29 03:00:20;;;;;;;14.93;6.53;;;4.90;99.90;;;;;;4984643;28;20542;-72
2022/04/29 03:02:46;;;;;;;12.55;6.50;;;5.00;99.90;;;;;;4968394;28;20041;-71
2022/04/29 03:05:11;;;;;;;13.38;6.38;;;5.00;99.90;;;;;;4984353;28;20045;-71
2022/04/29 03:07:37;;;;;;;13.38;6.85;;;5.00;99.90;;;;;;4989314;28;20047;-71
2022/04/29 03:10:03;;;;;;;16.35;7.10;;;4.90;99.90;;;;;;4984881;28;21217;-71
2022/04/29 03:12:29;;;;;;;25.95;7.20;;;5.00;99.90;;;;;;4985829;28;20045;-71
2022/04/29 03:15:15;;;;;;;28.88;7.05;;;5.10;99.90;;;;;;4968521;28;20069;-72
2022/04/29 03:20:24;;;;;;;18.08;6.88;;;5.20;99.90;;;;;;4979069;28;20111;-72
2022/04/29 03:22:51;;;;;;;16.98;6.25;;;5.10;99.90;;;;;;4981531;28;20033;-72
2022/04/29 03:25:16;;;;;;;12.75;6.97;;;5.10;99.90;;;;;;4984732;28;21053;-72
2022/04/29 03:27:42;;;;;;;16.67;6.75;;;5.10;99.90;;;;;;4990329;28;20045;-71
2022/04/29 03:30:09;;;;;;;18.33;7.70;;;5.00;99.90;;;;;;4979914;28;20049;-72
2022/04/29 03:32:34;;;;;;;38.97;8.15;;;5.00;99.90;;;;;;4980011;28;20058;-72
2022/04/29 03:35:00;;;;;;;20.90;7.82;;;5.00;99.90;;;;;;4965542;28;20049;-72
2022/04/29 03:37:26;;;;;;;15.20;7.88;;;5.10;99.90;;;;;;4997466;28;20136;-72
2022/04/29 03:39:53;;;;;;;24.67;7.68;;;5.10;99.90;;;;;;4981217;28;20077;-72
2022/04/29 03:42:19;;;;;;;15.10;6.43;;;5.10;99.90;;;;;;4996859;28;20045;-72
2022/04/29 03:44:45;;;;;;;14.35;7.43;;;4.90;99.90;;;;;;4996354;28;20076;-71
2022/04/29 03:47:11;;;;;;;14.82;7.43;;;4.90;99.90;;;;;;5000271;28;20550;-71
2022/04/29 03:49:37;;;;;;;18.65;7.05;;;4.90;99.90;;;;;;5000248;28;20421;-72
2022/04/29 03:52:04;;;;;;;23.02;8.10;;;4.90;99.90;;;;;;4996013;28;20434;-71
2022/04/29 03:54:31;;;;;;;25.35;7.85;;;5.00;99.90;;;;;;4996467;28;20653;-72
2022/04/29 03:56:57;;;;;;;18.08;7.93;;;5.00;99.90;;;;;;4999784;28;20038;-71
2022/04/29 03:59:23;;;;;;;20.40;7.20;;;5.00;99.90;;;;;;4983122;28;20050;-72
2022/04/29 04:01:49;;;;;;;23.83;8.57;;;5.00;99.90;;;;;;4999632;28;20048;-71
2022/04/29 04:04:14;;;;;;;22.40;7.25;;;5.10;99.90;;;;;;4996283;28;20054;-71
2022/04/29 04:06:49;;;;;;;32.53;9.02;;;5.20;99.90;;;;;;4998707;28;20042;-71
2022/04/29 04:09:17;;;;;;;48.03;8.63;;;5.20;99.90;;;;;;4997921;28;20143;-71
2022/04/29 04:11:42;;;;;;;26.30;8.43;;;5.20;99.90;;;;;;4985919;28;20068;-72
2022/04/29 04:14:09;;;;;;;15.40;7.78;;;5.10;99.90;;;;;;5001771;28;20418;-72
2022/04/29 04:16:36;;;;;;;20.02;7.55;;;5.10;99.90;;;;;;4982195;28;20063;-71
2022/04/29 04:19:03;;;;;;;28.83;7.93;;;5.00;99.90;;;;;;4984796;28;20065;-70
2022/04/29 04:21:29;;;;;;;24.90;8.52;;;4.90;99.90;;;;;;5001397;28;20067;-71
2022/04/29 04:23:55;;;;;;;22.65;8.90;;;4.90;99.90;;;;;;5005244;28;20047;-71
2022/04/29 04:26:22;;;;;;;27.23;8.25;;;5.00;99.90;;;;;;4987137;28;20041;-71
2022/04/29 04:28:47;;;;;;;16.05;7.35;;;4.90;99.90;;;;;;4983536;28;20107;-71
2022/04/29 04:31:14;;;;;;;30.23;8.65;;;5.00;99.90;;;;;;4984654;28;20776;-72
2022/04/29 04:33:40;;;;;;;25.33;8.50;;;5.10;99.90;;;;;;5001886;28;20037;-71
2022/04/29 04:36:06;;;;;;;29.45;8.20;;;5.10;99.90;;;;;;4997035;28;20049;-72
2022/04/29 04:38:32;;;;;;;21.42;8.82;;;5.10;99.90;;;;;;5002137;28;20053;-71
2022/04/29 04:40:58;;;;;;;34.90;8.65;;;5.20;99.90;;;;;;4999747;28;20776;-72
2022/04/29 04:43:27;;;;;;;22.33;8.55;;;5.20;99.90;;;;;;5003865;28;20041;-71
2022/04/29 04:45:53;;;;;;;19.27;8.60;;;5.30;99.90;;;;;;4984264;28;20045;-71
2022/04/29 04:48:19;;;;;;;21.85;8.75;;;5.40;99.90;;;;;;4992868;28;20045;-71
2022/04/29 04:50:45;;;;;;;22.67;8.35;;;5.50;99.90;;;;;;4986375;28;20049;-72
2022/04/29 04:53:11;;;;;;;26.27;7.88;;;5.70;99.90;;;;;;5004103;28;20040;-71
2022/04/29 04:55:37;;;;;;;21.90;8.35;;;5.80;99.90;;;;;;5001350;28;20720;-71
2022/04/29 04:58:03;;;;;;;31.00;9.70;;;6.00;99.90;;;;;;4988964;28;20054;-71
2022/04/29 05:00:36;;;;;;;23.10;7.78;;;6.10;99.90;;;;;;4976163;28;20083;-71
2022/04/29 05:03:02;;;;;;;23.48;7.85;;;6.40;99.90;;;;;;4983680;28;20488;-71
2022/04/29 05:05:28;;;;;;;23.50;8.43;;;6.60;99.90;;;;;;4985357;28;20081;-72
2022/04/29 05:07:54;;;;;;;44.00;9.68;;;7.00;99.90;;;;;;5001215;28;20673;-71
2022/04/29 05:10:20;;;;;;;22.60;8.35;;;7.40;99.90;;;;;;4984471;28;20087;-72
2022/04/29 05:12:47;;;;;;;31.85;9.70;;;7.50;99.90;;;;;;5003076;28;20092;-72
2022/04/29 05:15:16;;;;;;;25.80;9.07;;;7.70;99.90;;;;;;5007011;28;20069;-72
2022/04/29 05:17:43;;;;;;;39.03;8.93;;;8.30;99.90;;;;;;4994249;28;20068;-72
2022/04/29 05:20:10;;;;;;;35.80;8.98;;;8.60;99.90;;;;;;4967978;28;20057;-72
2022/04/29 05:22:36;;;;;;;27.05;9.50;;;8.80;99.90;;;;;;5001596;28;20569;-71
2022/04/29 05:25:03;;;;;;;24.48;9.63;;;9.30;99.90;;;;;;4987746;28;20410;-72
2022/04/29 05:27:29;;;;;;;23.10;8.35;;;9.70;99.90;;;;;;4982988;28;20048;-72
2022/04/29 05:29:54;;;;;;;22.88;9.07;;;9.90;99.90;;;;;;4984854;28;20053;-72
2022/04/29 05:32:21;;;;;;;17.00;8.75;;;10.30;99.90;;;;;;4966400;28;20053;-71
2022/04/29 05:34:47;;;;;;;20.38;8.90;;;9.50;99.90;;;;;;5002770;28;20049;-72
2022/04/29 05:37:13;;;;;;;23.10;8.75;;;10.60;99.90;;;;;;5001404;28;20061;-72
2022/04/29 05:42:42;;;;;;;23.98;8.95;;;10.80;99.90;;;;;;4994298;28;20404;-72
2022/04/29 05:45:08;;;;;;;18.00;7.30;;;10.80;99.90;;;;;;5004601;28;20505;-70
2022/04/29 05:47:34;;;;;;;15.68;7.32;;;10.10;99.90;;;;;;5002380;28;20045;-72
2022/04/29 05:50:00;;;;;;;22.92;7.95;;;9.90;99.90;;;;;;5003072;28;20041;-72
2022/04/29 05:52:26;;;;;;;15.20;7.43;;;10.50;99.90;;;;;;5004076;28;20042;-72
2022/04/29 05:54:52;;;;;;;23.58;8.30;;;10.30;99.90;;;;;;5004706;28;20494;-72
2022/04/29 05:57:18;;;;;;;13.60;7.13;;;10.50;99.90;;;;;;5004475;28;20143;-72
2022/04/29 05:59:43;;;;;;;14.15;6.65;;;9.90;99.90;;;;;;5005006;28;20541;-72
2022/04/29 06:02:09;;;;;;;18.55;7.32;;;9.60;99.90;;;;;;4986995;28;20060;-72
2022/04/29 06:04:35;;;;;;;31.80;7.82;;;9.40;99.90;;;;;;5001006;28;20141;-72
2022/04/29 06:07:01;;;;;;;25.30;7.30;;;9.60;99.90;;;;;;5006635;28;20041;-72
2022/04/29 06:09:26;;;;;;;12.77;6.78;;;9.50;99.90;;;;;;5002230;28;20899;-72
2022/04/29 06:11:53;;;;;;;20.63;7.60;;;9.50;99.90;;;;;;4982487;28;20509;-72
2022/04/29 06:14:18;;;;;;;14.15;7.32;;;9.40;99.90;;;;;;5001584;28;20132;-72
2022/04/29 06:16:46;;;;;;;15.88;7.13;;;9.20;99.90;;;;;;5004388;28;20550;-72
2022/04/29 06:19:12;;;;;;;15.90;7.15;;;8.90;99.90;;;;;;5003463;28;20092;-72
2022/04/29 06:21:41;;;;;;;14.30;7.60;;;8.70;99.90;;;;;;5005052;28;20236;-72
2022/04/29 06:24:08;;;;;;;17.38;7.75;;;8.80;99.90;;;;;;5008018;28;20080;-72
2022/04/29 06:26:34;;;;;;;18.50;7.63;;;9.10;99.90;;;;;;4985580;28;20049;-72
2022/04/29 06:29:00;;;;;;;13.10;7.53;;;9.00;99.90;;;;;;4984716;28;20057;-71
2022/04/29 06:31:25;;;;;;;12.85;7.45;;;9.00;99.90;;;;;;4982962;28;20053;-72
2022/04/29 06:33:51;;;;;;;13.95;7.38;;;8.90;99.90;;;;;;4999295;28;20103;-71
2022/04/29 06:36:17;;;;;;;13.73;7.68;;;8.70;99.90;;;;;;5001019;28;20051;-71
2022/04/29 06:38:43;;;;;;;15.52;7.65;;;8.60;99.90;;;;;;4999113;28;20045;-72
2022/04/29 06:41:08;;;;;;;22.05;7.30;;;8.90;99.90;;;;;;4985180;28;20460;-72
2022/04/29 06:43:34;;;;;;;20.98;8.30;;;8.90;99.90;;;;;;5005553;28;20155;-72
2022/04/29 06:46:00;;;;;;;16.02;7.78;;;8.70;99.90;;;;;;5003747;28;20834;-71
2022/04/29 06:48:27;;;;;;;13.52;7.45;;;8.90;99.90;;;;;;4999758;28;20071;-72
2022/04/29 06:50:53;;;;;;;17.10;8.07;;;8.80;99.90;;;;;;5001020;28;20380;-72
2022/04/29 06:53:18;;;;;;;14.60;7.43;;;8.80;99.90;;;;;;5001708;28;20081;-70
2022/04/29 06:55:44;;;;;;;14.15;7.68;;;9.10;99.90;;;;;;4983147;28;20041;-70
2022/04/29 06:58:10;;;;;;;16.58;7.90;;;9.10;99.90;;;;;;4982813;28;20045;-70
2022/04/29 07:00:37;;;;;;;20.30;7.70;;;9.00;99.90;;;;;;5000031;28;20055;-72
2022/04/29 07:03:03;;;;;;;15.82;7.38;;;8.90;99.90;;;;;;5002781;28;20734;-72
2022/04/29 07:05:33;;;;;;;13.75;7.10;;;9.30;99.90;;;;;;4999419;28;20103;-72
2022/04/29 07:07:59;;;;;;;14.18;7.25;;;9.10;99.90;;;;;;4982625;28;20073;-72
2022/04/29 07:10:25;;;;;;;14.40;7.13;;;9.20;99.90;;;;;;5001898;28;20199;-72
2022/04/29 07:12:51;;;;;;;15.75;6.78;;;9.20;99.90;;;;;;4996302;28;20056;-72
2022/04/29 07:15:17;;;;;;;16.38;6.70;;;9.40;99.90;;;;;;4995555;28;20605;-72
2022/04/29 07:17:44;;;;;;;10.88;6.55;;;9.60;99.90;;;;;;4992688;28;20365;-72
2022/04/29 07:20:12;;;;;;;16.75;6.60;;;9.30;99.90;;;;;;4997686;28;20084;-72
2022/04/29 07:22:39;;;;;;;12.63;6.65;;;9.40;99.90;;;;;;4997184;28;20120;-72
2022/04/29 07:25:10;;;;;;;12.07;6.38;;;9.40;99.90;;;;;;4978581;28;20441;-72
2022/04/29 07:27:38;;;;;;;13.63;5.95;;;9.70;99.90;;;;;;4984189;28;20134;-72
2022/04/29 07:30:05;;;;;;;13.90;6.32;;;9.60;99.90;;;;;;5000672;28;20045;-72
2022/04/29 07:32:31;;;;;;;17.38;6.18;;;9.40;99.90;;;;;;4996810;28;20045;-72
2022/04/29 07:43:13;;;;;;;11.05;6.00;;;9.90;99.90;;;;;;5002015;28;20844;-72
2022/04/29 07:45:40;;;;;;;15.00;6.15;;;10.10;99.90;;;;;;4980719;28;20049;-72
2022/04/29 07:48:07;;;;;;;11.63;5.18;;;10.20;99.90;;;;;;4982886;28;20053;-71
2022/04/29 07:50:33;;;;;;;16.40;5.93;;;10.20;99.90;;;;;;4989616;28;20781;-72
2022/04/29 07:53:00;;;;;;;18.45;6.40;;;10.10;99.90;;;;;;5004594;28;20897;-72
2022/04/29 07:55:26;;;;;;;11.05;5.50;;;10.60;99.90;;;;;;4985081;28;20065;-72
2022/04/29 07:57:52;;;;;;;11.43;5.35;;;10.40;99.90;;;;;;4984764;28;20054;-72
2022/04/29 08:00:19;;;;;;;14.60;5.65;;;10.00;99.90;;;;;;5003830;28;20116;-72
2022/04/29 08:02:45;;;;;;;8.95;4.97;;;10.60;99.90;;;;;;4966551;28;20056;-72
2022/04/29 08:05:11;;;;;;;17.90;5.70;;;10.50;99.90;;;;;;4996286;28;20561;-72
2022/04/29 08:07:37;;;;;;;12.93;5.07;;;10.80;99.90;;;;;;4997127;28;20051;-72
2022/04/29 08:10:04;;;;;;;9.50;4.40;;;10.90;99.90;;;;;;4978359;28;20085;-72
2022/04/29 08:12:30;;;;;;;11.80;5.07;;;11.20;99.90;;;;;;5004119;28;20095;-72
2022/04/29 08:14:56;;;;;;;12.63;4.70;;;11.60;99.90;;;;;;4984408;28;21380;-72
2022/04/29 08:17:22;;;;;;;10.88;5.13;;;11.20;99.90;;;;;;4984079;28;20057;-72
2022/04/29 08:19:49;;;;;;;11.40;4.80;;;11.20;99.90;;;;;;5001487;28;20507;-72
2022/04/29 08:22:16;;;;;;;11.77;4.40;;;11.40;99.90;;;;;;5003650;28;20049;-72
2022/04/29 08:24:42;;;;;;;13.05;4.95;;;11.30;99.90;;;;;;4982513;28;20406;-72
2022/04/29 08:27:08;;;;;;;10.32;4.90;;;11.60;99.90;;;;;;4998302;28;20045;-71
2022/04/29 08:29:34;;;;;;;11.57;4.95;;;10.70;99.90;;;;;;5002852;28;20049;-71
2022/04/29 08:32:01;;;;;;;13.80;5.07;;;11.30;99.90;;;;;;5002675;28;20091;-71
2022/04/29 08:34:27;;;;;;;11.25;5.03;;;11.70;99.90;;;;;;4986616;28;20069;-72
2022/04/29 08:36:52;;;;;;;12.50;4.57;;;11.80;99.90;;;;;;4986762;28;20171;-72
2022/04/29 08:39:18;;;;;;;14.90;5.07;;;11.60;99.90;;;;;;5000002;28;20700;-73
2022/04/29 08:41:44;;;;;;;10.82;4.57;;;12.30;99.90;;;;;;4984521;28;20556;-72
2022/04/29 08:44:11;;;;;;;10.98;4.13;;;12.00;99.90;;;;;;5005941;28;20053;-72
2022/04/29 08:46:40;;;;;;;10.00;4.45;;;12.30;99.90;;;;;;4983445;28;20111;-72
2022/04/29 08:49:07;;;;;;;8.60;4.00;;;12.30;99.90;;;;;;4981700;28;20041;-72
2022/04/29 08:51:36;;;;;;;12.32;4.50;;;11.90;99.90;;;;;;5002430;28;20057;-72
2022/04/29 08:54:04;;;;;;;12.82;4.90;;;11.70;99.90;;;;;;5000612;28;20064;-72
2022/04/29 08:59:20;;;;;;;11.60;3.80;;;12.30;99.90;;;;;;5002725;28;20111;-72
2022/04/29 09:01:46;;;;;;;8.23;3.30;;;11.90;99.90;;;;;;5004805;28;20442;-72
2022/04/29 09:04:12;;;;;;;24.73;3.85;;;11.90;99.90;;;;;;4987509;28;20088;-72
2022/04/29 09:06:50;;;;;;;6.63;3.00;;;12.30;99.90;;;;;;5001520;28;20561;-72
2022/04/29 09:09:21;;;;;;;7.90;3.08;;;12.60;99.90;;;;;;4982364;28;20053;-72
2022/04/29 09:11:47;;;;;;;10.68;3.42;;;13.00;99.90;;;;;;5000964;28;20048;-73
2022/04/29 09:14:24;;;;;;;7.20;2.92;;;13.40;99.90;;;;;;4998656;28;20053;-72
2022/04/29 09:16:51;;;;;;;9.75;3.50;;;13.40;99.90;;;;;;4983367;28;20057;-72
2022/04/29 09:19:34;;;;;;;8.30;2.70;;;13.70;99.90;;;;;;4999710;28;20064;-72
2022/04/29 09:22:09;;;;;;;8.88;2.83;;;12.60;99.90;;;;;;5001486;28;20053;-72
2022/04/29 09:25:00;;;;;;;5.88;3.10;;;12.50;99.90;;;;;;4983270;28;20053;-72
2022/04/29 09:27:26;;;;;;;9.27;3.00;;;12.50;99.90;;;;;;5001312;28;20533;-72
2022/04/29 09:29:59;;;;;;;6.90;3.28;;;12.20;99.90;;;;;;5004362;28;20041;-72
2022/04/29 09:32:25;;;;;;;10.27;3.20;;;13.30;99.90;;;;;;4981739;28;20068;-72
2022/04/29 09:34:53;;;;;;;7.72;3.35;;;12.70;99.90;;;;;;5002204;28;20049;-72
2022/04/29 09:37:25;;;;;;;10.05;3.35;;;13.00;99.90;;;;;;4997644;28;20128;-73
2022/04/29 09:39:51;;;;;;;8.82;3.58;;;13.00;99.90;;;;;;4983354;28;20053;-72
2022/04/29 09:42:17;;;;;;;13.05;4.45;;;12.50;99.90;;;;;;4978757;28;20490;-72
2022/04/29 09:44:42;;;;;;;10.95;3.80;;;13.40;99.90;;;;;;5003174;28;20053;-72
2022/04/29 09:47:16;;;;;;;7.78;3.80;;;12.20;99.90;;;;;;5003026;28;20041;-72
2022/04/29 09:49:55;;;;;;;6.97;3.70;;;12.30;99.90;;;;;;5000488;28;20041;-72
2022/04/29 09:52:23;;;;;;;8.18;3.92;;;13.00;99.90;;;;;;5000722;28;20049;-72
2022/04/29 09:54:50;;;;;;;11.77;3.95;;;12.40;99.90;;;;;;5001665;28;20499;-72
2022/04/29 09:57:23;;;;;;;11.00;4.65;;;12.30;99.90;;;;;;4981999;28;20092;-72
2022/04/29 09:59:54;;;;;;;13.35;4.50;;;13.30;99.90;;;;;;5002947;28;20579;-72
2022/04/29 10:02:28;;;;;;;7.65;4.07;;;13.50;99.90;;;;;;4989160;28;20136;-72
2022/04/29 10:04:55;;;;;;;13.70;4.32;;;13.40;99.90;;;;;;5001519;28;20127;-72
2022/04/29 10:07:23;;;;;;;10.10;3.90;;;13.80;99.90;;;;;;4999257;28;20060;-72
2022/04/29 10:09:54;;;;;;;9.48;4.25;;;13.90;99.90;;;;;;5001750;28;20299;-72
2022/04/29 10:12:25;;;;;;;9.95;4.65;;;14.10;99.90;;;;;;4999969;28;20045;-73
2022/04/29 10:15:00;;;;;;;11.20;4.60;;;14.50;99.90;;;;;;4980449;28;20533;-73
2022/04/29 10:23:08;;;;;;;7.88;4.05;;;14.20;97.20;;;;;;5001606;28;20049;-72
2022/04/29 10:25:35;;;;;;;;;;;13.30;99.90;;;;;;4980092;28;20303;-73
2022/04/29 10:28:02;;;;;;;17.58;4.22;;;13.50;97.00;;;;;;4998559;28;19925;-72
2022/04/29 10:30:30;;;;;;;10.63;4.28;;;13.90;99.90;;;;;;5001652;28;20056;-73
2022/04/29 10:33:08;;;;;;;10.35;4.20;;;13.90;99.90;;;;;;4981718;28;20050;-72
2022/04/29 10:35:43;;;;;;;8.50;4.13;;;14.30;99.90;;;;;;4998149;28;20119;-73
2022/04/29 10:38:12;;;;;;;10.10;3.92;;;14.10;97.90;;;;;;5001050;28;20042;-73
2022/04/29 10:40:38;;;;;;;10.52;4.55;;;14.40;99.90;;;;;;4982670;28;20045;-73
2022/04/29 10:43:09;;;;;;;10.07;4.20;;;14.10;99.40;;;;;;5004770;28;20040;-73
2022/04/29 10:45:36;;;;;;;8.43;4.20;;;14.40;99.90;;;;;;4999119;28;20521;-72
2022/04/29 10:48:42;;;;;;;10.30;4.53;;;14.50;98.70;;;;;;4983333;28;20127;-73
2022/04/29 10:51:26;;;;;;;8.85;4.60;;;14.50;98.70;;;;;;4942072;28;20077;-73
2022/04/29 10:53:55;;;;;;;8.38;3.95;;;15.00;99.90;;;;;;4957781;28;20042;-71
2022/04/29 10:56:30;;;;;;;11.50;4.40;;;15.20;98.50;;;;;;4966822;28;20146;-72
2022/04/29 10:59:11;;;;;;;12.52;4.32;;;15.20;99.90;;;;;;4996816;28;20081;-72
2022/04/29 11:01:38;;;;;;;9.25;4.07;;;14.70;96.40;;;;;;4982349;28;20117;-71
2022/04/29 11:04:08;;;;;;;11.30;4.40;;;15.40;98.70;;;;;;4979170;28;20068;-71
2022/04/29 11:06:37;;;;;;;10.75;4.60;;;15.00;92.90;;;;;;4997100;28;20056;-72
2022/04/29 11:09:30;;;;;;;10.73;4.07;;;15.00;99.90;;;;;;4998240;28;20564;-72
2022/04/29 11:11:59;;;;;;;7.55;3.80;;;15.20;96.00;;;;;;4995087;28;20048;-72
2022/04/29 11:14:25;;;;;;;10.00;4.05;;;14.60;94.10;;;;;;4997820;28;20063;-72
2022/04/29 11:16:55;;;;;;;7.65;4.03;;;15.00;96.10;;;;;;4985127;28;20049;-72
2022/04/29 11:19:28;;;;;;;24.70;4.57;;;14.00;95.50;;;;;;4993915;28;20128;-72
2022/04/29 11:24:53;;;;;;;8.95;3.95;;;15.00;93.70;;;;;;4997350;28;20589;-72
2022/04/29 11:27:26;;;;;;;7.82;3.97;;;14.30;88.60;;;;;;4978814;28;20129;-72
2022/04/29 11:29:54;;;;;;;9.80;3.90;;;14.50;93.30;;;;;;5000242;28;20523;-72
2022/04/29 11:32:26;;;;;;;8.15;3.78;;;14.90;85.90;;;;;;4998646;28;20045;-72
2022/04/29 11:34:56;;;;;;;9.00;4.00;;;15.00;93.60;;;;;;4994817;28;20045;-72
2022/04/29 11:37:26;;;;;;;7.80;3.88;;;15.10;93.00;;;;;;4994819;28;20053;-72
2022/04/29 11:39:55;;;;;;;8.25;3.40;;;15.30;96.00;;;;;;4977719;28;20123;-72
2022/04/29 11:42:22;;;;;;;11.32;3.95;;;15.30;93.30;;;;;;5000359;28;20419;-72
2022/04/29 11:44:51;;;;;;;9.10;3.50;;;14.90;91.80;;;;;;4978844;28;20533;-72
2022/04/29 11:47:26;;;;;;;8.68;3.80;;;14.50;91.50;;;;;;4996497;28;20498;-72
2022/04/29 11:49:52;;;;;;;11.23;4.28;;;14.90;93.50;;;;;;4999644;28;20081;-72
2022/04/29 11:52:23;;;;;;;8.90;3.55;;;15.10;98.90;;;;;;5000334;28;20057;-73
2022/04/29 11:54:51;;;;;;;7.95;3.65;;;14.70;88.50;;;;;;4998325;28;20419;-72
2022/04/29 11:57:17;;;;;;;11.00;3.63;;;15.00;93.80;;;;;;4995684;28;20040;-72
2022/04/29 11:59:44;;;;;;;11.52;3.35;;;15.20;93.90;;;;;;5000022;28;20495;-72
2022/04/29 12:02:10;;;;;;;19.42;4.20;;;15.40;94.20;;;;;;4993336;28;20253;-72
2022/04/29 12:04:36;;;;;;;14.65;3.70;;;15.40;95.10;;;;;;4973877;28;20791;-72
2022/04/29 12:07:05;;;;;;;11.75;3.90;;;15.50;99.40;;;;;;4965116;28;20053;-72
2022/04/29 12:09:34;;;;;;;8.77;3.80;;;15.00;94.70;;;;;;4994535;28;20880;-72
2022/04/29 12:12:00;;;;;;;9.05;3.90;;;14.70;92.10;;;;;;4994207;28;20048;-72
2022/04/29 12:14:26;;;;;;;10.63;3.33;;;14.80;94.00;;;;;;4993411;28;20239;-72
2022/04/29 12:16:52;;;;;;;18.38;4.60;;;14.80;94.90;;;;;;4993182;28;20136;-72
2022/04/29 12:19:23;;;;;;;8.13;3.10;;;15.00;94.10;;;;;;4994323;28;20647;-72
2022/04/29 12:21:56;;;;;;;9.82;3.30;;;14.80;89.10;;;;;;4993150;28;20045;-72
2022/04/29 12:25:01;;;;;;;8.13;3.60;;;14.50;98.00;;;;;;4994685;28;20915;-72
2022/04/29 12:27:32;;;;;;;9.65;3.28;;;14.60;95.30;;;;;;4978000;28;20079;-72
2022/04/29 12:35:30;;;;;;;7.32;3.40;;;15.20;98.30;;;;;;4995985;28;20103;-71
2022/04/29 12:37:56;;;;;;;8.32;3.67;;;14.60;94.30;;;;;;5000901;28;20056;-72
2022/04/29 12:40:29;;;;;;;10.93;3.38;;;14.80;97.20;;;;;;5000868;28;20057;-72
2022/04/29 12:43:12;;;;;;;9.77;3.30;;;15.10;95.10;;;;;;5000224;28;20103;-72
2022/04/29 12:45:38;;;;;;;7.65;3.42;;;15.00;91.80;;;;;;5001069;28;20049;-72
2022/04/29 12:48:07;;;;;;;11.70;4.25;;;15.20;97.40;;;;;;4999191;28;20049;-72
2022/04/29 12:50:37;;;;;;;8.23;3.38;;;15.30;99.90;;;;;;4995515;28;20053;-72
2022/04/29 12:53:08;;;;;;;7.82;3.17;;;14.80;97.80;;;;;;5000384;28;20045;-73
2022/04/29 12:55:44;;;;;;;8.68;3.35;;;14.60;87.10;;;;;;4999081;28;20152;-72
2022/04/29 12:58:21;;;;;;;8.55;3.17;;;14.60;91.50;;;;;;4980798;28;20054;-72
2022/04/29 13:00:56;;;;;;;5.85;3.30;;;14.20;88.90;;;;;;5001829;28;20076;-72
2022/04/29 13:03:25;;;;;;;6.15;3.13;;;14.40;97.20;;;;;;5001964;28;20714;-72
2022/04/29 13:05:51;;;;;;;6.65;3.10;;;14.50;97.20;;;;;;5001681;28;20049;-72
2022/04/29 13:08:17;;;;;;;6.72;3.10;;;14.70;97.60;;;;;;4982023;28;20038;-72
2022/04/29 13:10:50;;;;;;;12.40;3.38;;;14.70;96.80;;;;;;4985285;28;20055;-72
2022/04/29 13:13:21;;;;;;;20.38;3.90;;;14.40;93.40;;;;;;4999206;28;20100;-71
2022/04/29 13:15:47;;;;;;;9.93;3.30;;;14.60;98.30;;;;;;4982761;28;20112;-72
2022/04/29 13:18:15;;;;;;;7.40;3.33;;;14.50;87.00;;;;;;4999319;28;20060;-72
2022/04/29 13:20:42;;;;;;;6.68;3.75;;;14.50;94.00;;;;;;4996628;28;20115;-72